createdAt,value
2023-04-02T00:01:40.475Z,0.88
2023-04-02T00:04:22.583Z,0.90
2023-04-02T00:07:15.879Z,0.91
2023-04-02T00:09:47.507Z,0.92
2023-04-02T00:12:19.819Z,0.93
2023-04-02T00:14:55.054Z,0.94
2023-04-02T00:17:26.788Z,0.93
2023-04-02T00:20:04.099Z,0.90
2023-04-02T00:22:44.095Z,0.93
2023-04-02T00:25:16.081Z,0.94
2023-04-02T00:27:47.950Z,0.94
2023-04-02T00:30:19.551Z,0.94
2023-04-02T00:32:51.785Z,0.96
2023-04-02T00:35:28.125Z,0.97
2023-04-02T00:38:00.456Z,0.97
2023-04-02T00:40:32.171Z,0.98
2023-04-02T00:43:06.960Z,0.99
2023-04-02T00:45:38.959Z,1.00
2023-04-02T00:48:26.300Z,1.01
2023-04-02T00:51:11.766Z,1.03
2023-04-02T00:53:47.795Z,1.03
2023-04-02T00:56:29.287Z,1.04
2023-04-02T00:59:01.135Z,1.05
2023-04-02T01:01:37.548Z,1.05
2023-04-02T01:04:27.819Z,1.07
2023-04-02T01:07:05.143Z,1.06
2023-04-02T01:09:40.035Z,1.03
2023-04-02T01:12:40.931Z,1.00
2023-04-02T01:15:21.563Z,0.99
2023-04-02T01:18:13.821Z,0.98
2023-04-02T01:20:51.912Z,0.99
2023-04-02T01:23:26.451Z,0.99
2023-04-02T01:26:04.214Z,1.00
2023-04-02T01:29:15.071Z,1.01
2023-04-02T01:31:49.122Z,1.03
2023-04-02T01:34:25.031Z,1.03
2023-04-02T01:36:57.453Z,1.05
2023-04-02T01:39:39.934Z,1.08
2023-04-02T01:42:21.804Z,1.09
2023-04-02T01:45:00.949Z,1.11
2023-04-02T01:47:33.358Z,1.12
2023-04-02T01:50:19.842Z,1.14
2023-04-02T01:52:55.639Z,1.16
2023-04-02T01:55:49.843Z,1.18
2023-04-02T01:58:28.191Z,1.18
2023-04-02T02:01:10.648Z,1.19
2023-04-02T02:03:44.686Z,1.19
2023-04-02T02:06:18.546Z,1.19
2023-04-02T02:08:55.887Z,1.20
2023-04-02T02:11:30.125Z,1.20
2023-04-02T02:14:12.089Z,1.21
2023-04-02T02:16:45.666Z,1.21
2023-04-02T02:19:23.887Z,1.23
2023-04-02T02:22:09.497Z,1.23
2023-04-02T02:24:42.272Z,1.23
2023-04-02T02:27:22.867Z,1.23
2023-04-02T02:30:00.463Z,1.23
2023-04-02T02:32:34.811Z,1.24
2023-04-02T02:35:43.634Z,1.24
2023-04-02T02:38:31.749Z,1.26
2023-04-02T02:41:15.539Z,1.27
2023-04-02T02:43:56.484Z,1.28
2023-04-02T02:46:30.509Z,1.28
2023-04-02T02:49:04.943Z,1.29
2023-04-02T02:51:45.136Z,1.29
2023-04-02T02:54:19.306Z,1.30
2023-04-02T02:56:57.768Z,1.30
2023-04-02T02:59:31.633Z,1.31
2023-04-02T03:02:05.529Z,1.32
2023-04-02T03:04:38.609Z,1.34
2023-04-02T03:07:10.898Z,1.34
2023-04-02T03:09:53.869Z,1.34
2023-04-02T03:12:49.249Z,1.35
2023-04-02T03:15:35.595Z,1.36
2023-04-02T03:18:31.678Z,1.37
2023-04-02T03:21:21.121Z,1.38
2023-04-02T03:24:09.661Z,1.40
2023-04-02T03:26:47.249Z,1.40
2023-04-02T03:29:25.291Z,1.42
2023-04-02T03:32:03.692Z,1.42
2023-04-02T03:34:50.999Z,1.42
2023-04-02T03:37:39.252Z,1.42
2023-04-02T03:40:26.245Z,1.42
2023-04-02T03:43:25.605Z,1.42
2023-04-02T03:46:06.987Z,1.42
2023-04-02T03:48:43.594Z,1.43
2023-04-02T03:51:25.751Z,1.43
2023-04-02T03:53:57.549Z,1.43
2023-04-02T03:56:39.603Z,1.44
2023-04-02T04:03:21.372Z,1.48
2023-04-02T04:05:59.093Z,1.47
2023-04-02T04:08:42.453Z,1.46
2023-04-02T04:11:18.487Z,1.48
2023-04-02T04:14:19.381Z,1.49
2023-04-02T04:17:09.533Z,1.48
2023-04-02T04:19:55.555Z,1.48
2023-04-02T04:22:34.019Z,1.48
2023-04-02T04:25:18.299Z,1.47
2023-04-02T04:28:13.108Z,1.47
2023-04-02T04:31:04.218Z,1.47
2023-04-02T04:33:43.746Z,1.46
2023-04-02T04:36:41.647Z,1.50
2023-04-02T04:39:18.678Z,1.48
2023-04-02T04:41:54.211Z,1.48
2023-04-02T04:44:34.883Z,1.50
2023-04-02T04:47:15.777Z,1.48
2023-04-02T04:49:57.210Z,1.50
2023-04-02T04:52:38.766Z,1.49
2023-04-02T04:55:39.512Z,1.51
2023-04-02T04:58:21.216Z,1.52
2023-04-02T05:01:05.098Z,1.53
2023-04-02T05:03:51.201Z,1.53
2023-04-02T05:06:40.494Z,1.55
2023-04-02T05:09:22.716Z,1.55
2023-04-02T05:12:12.806Z,1.57
2023-04-02T05:14:56.582Z,1.58
2023-04-02T05:17:31.288Z,1.58
2023-04-02T05:20:09.860Z,1.58
2023-04-02T05:22:47.912Z,1.60
2023-04-02T05:25:25.606Z,1.60
2023-04-02T05:28:04.504Z,1.61
2023-04-02T05:31:04.370Z,1.63
2023-04-02T05:33:37.353Z,1.64
2023-04-02T05:36:20.967Z,1.66
2023-04-02T05:38:54.243Z,1.66
2023-04-02T05:41:30.528Z,1.66
2023-04-02T05:44:16.870Z,1.68
2023-04-02T05:46:57.384Z,1.70
2023-04-02T05:49:39.382Z,1.70
2023-04-02T05:52:34.415Z,1.70
2023-04-02T05:55:12.375Z,1.71
2023-04-02T05:58:13.559Z,1.70
2023-04-02T06:00:59.859Z,1.71
2023-04-02T06:03:46.282Z,1.71
2023-04-02T06:06:27.405Z,1.73
2023-04-02T06:09:08.774Z,1.76
2023-04-02T06:11:45.576Z,1.79
2023-04-02T06:14:17.785Z,1.82
2023-04-02T06:16:55.665Z,1.86
2023-04-02T06:19:31.572Z,1.88
2023-04-02T06:22:18.937Z,1.91
2023-04-02T06:24:58.357Z,1.95
2023-04-02T06:27:30.788Z,1.98
2023-04-02T06:30:06.313Z,2.00
2023-04-02T06:32:37.976Z,2.03
2023-04-02T06:35:18.568Z,2.05
2023-04-02T06:37:54.596Z,2.08
2023-04-02T06:40:40.749Z,2.12
2023-04-02T06:43:33.549Z,2.16
2023-04-02T06:46:19.448Z,2.19
2023-04-02T06:48:57.316Z,2.22
2023-04-02T06:51:31.283Z,2.23
2023-04-02T06:54:03.358Z,2.25
2023-04-02T06:56:56.470Z,2.26
2023-04-02T06:59:28.574Z,2.30
2023-04-02T07:02:16.793Z,2.33
2023-04-02T07:04:48.859Z,2.37
2023-04-02T07:07:20.461Z,2.39
2023-04-02T07:09:52.058Z,2.43
2023-04-02T07:12:26.896Z,2.58
2023-04-02T07:14:58.630Z,2.79
2023-04-02T07:17:30.741Z,2.98
2023-04-02T07:20:02.447Z,3.21
2023-04-02T07:22:34.022Z,3.32
2023-04-02T07:25:06.589Z,3.26
2023-04-02T07:27:38.147Z,3.22
2023-04-02T07:30:10.745Z,3.36
2023-04-02T07:32:42.682Z,3.51
2023-04-02T07:35:14.375Z,3.60
2023-04-02T07:37:45.912Z,4.07
2023-04-02T07:40:20.807Z,4.33
2023-04-02T07:42:52.868Z,4.29
2023-04-02T07:45:24.497Z,4.14
2023-04-02T07:47:59.991Z,4.01
2023-04-02T07:58:00.255Z,3.50
2023-04-02T08:00:34.585Z,3.48
2023-04-02T08:03:27.606Z,3.50
2023-04-02T08:06:01.127Z,3.43
2023-04-02T08:08:34.321Z,3.46
2023-04-02T08:11:10.261Z,3.48
2023-04-02T08:13:44.309Z,3.49
2023-04-02T08:16:18.114Z,3.51
2023-04-02T08:18:51.968Z,3.55
2023-04-02T08:21:26.411Z,3.61
2023-04-02T08:23:58.201Z,3.72
2023-04-02T08:26:30.453Z,3.83
2023-04-02T08:29:03.127Z,3.94
2023-04-02T08:31:34.746Z,3.98
2023-04-02T08:34:06.589Z,4.08
2023-04-02T08:36:40.464Z,4.17
2023-04-02T08:39:12.842Z,4.19
2023-04-02T08:41:56.029Z,4.21
2023-04-02T08:45:24.947Z,4.28
2023-04-02T08:48:00.006Z,4.58
2023-04-02T08:50:39.066Z,4.82
2023-04-02T08:53:25.041Z,4.94
2023-04-02T08:56:06.626Z,4.86
2023-04-02T08:58:48.524Z,4.80
2023-04-02T09:01:57.249Z,4.90
2023-04-02T09:04:29.528Z,5.07
2023-04-02T09:07:01.386Z,5.00
2023-04-02T09:09:37.845Z,4.95
2023-04-02T09:12:28.198Z,5.08
2023-04-02T09:15:34.325Z,5.07
2023-04-02T09:18:17.919Z,4.86
2023-04-02T09:20:50.293Z,4.97
2023-04-02T09:23:24.571Z,5.10
2023-04-02T09:26:04.106Z,5.21
2023-04-02T09:28:36.455Z,5.03
2023-04-02T09:31:44.145Z,5.24
2023-04-02T09:34:36.613Z,5.50
2023-04-02T09:37:18.324Z,5.44
2023-04-02T09:39:49.900Z,5.42
2023-04-02T09:42:42.043Z,5.58
2023-04-02T09:45:20.513Z,5.55
2023-04-02T09:47:54.051Z,5.61
2023-04-02T09:50:28.820Z,5.69
2023-04-02T09:53:29.481Z,5.65
2023-04-02T09:56:34.578Z,5.52
2023-04-02T09:59:16.677Z,5.53
2023-04-02T10:02:04.571Z,5.60
2023-04-02T10:04:48.430Z,5.64
2023-04-02T10:07:42.038Z,5.71
2023-04-02T10:10:51.724Z,5.92
2023-04-02T10:13:49.236Z,5.85
2023-04-02T10:16:26.973Z,5.70
2023-04-02T10:19:04.844Z,5.60
2023-04-02T10:21:38.739Z,5.75
2023-04-02T10:24:17.433Z,5.75
2023-04-02T10:27:11.945Z,5.77
2023-04-02T10:30:05.337Z,5.59
2023-04-02T10:32:44.598Z,5.48
2023-04-02T10:35:48.216Z,5.41
2023-04-02T10:38:43.156Z,5.46
2023-04-02T10:41:39.064Z,5.50
2023-04-02T10:44:42.692Z,5.46
2023-04-02T10:47:38.076Z,5.50
2023-04-02T10:50:12.371Z,5.57
2023-04-02T10:52:58.220Z,5.66
2023-04-02T10:55:39.794Z,5.67
2023-04-02T10:58:27.483Z,5.51
2023-04-02T11:01:09.386Z,5.48
2023-04-02T11:03:53.162Z,5.66
2023-04-02T11:06:30.145Z,5.74
2023-04-02T11:09:07.434Z,5.81
2023-04-02T11:11:43.134Z,5.63
2023-04-02T11:14:17.094Z,5.54
2023-04-02T11:16:50.397Z,5.53
2023-04-02T11:19:26.721Z,5.64
2023-04-02T11:22:04.358Z,5.68
2023-04-02T11:24:44.252Z,5.73
2023-04-02T11:27:17.365Z,5.87
2023-04-02T11:30:26.333Z,5.87
2023-04-02T11:33:45.605Z,5.64
2023-04-02T11:36:50.218Z,5.63
2023-04-02T11:39:54.046Z,5.68
2023-04-02T11:42:32.152Z,5.70
2023-04-02T11:45:26.142Z,5.73
2023-04-02T11:48:02.958Z,5.70
2023-04-02T11:50:38.215Z,5.61
2023-04-02T11:53:13.181Z,5.51
2023-04-02T11:55:46.909Z,5.53
2023-04-02T11:58:37.476Z,5.74
2023-04-02T12:01:34.091Z,5.88
2023-04-02T12:04:33.778Z,5.87
2023-04-02T12:07:26.885Z,5.94
2023-04-02T12:10:03.431Z,5.92
2023-04-02T12:12:39.046Z,5.75
2023-04-02T12:15:32.029Z,5.71
2023-04-02T12:18:06.112Z,5.72
2023-04-02T12:20:38.519Z,5.86
2023-04-02T12:23:20.173Z,5.91
2023-04-02T12:26:03.527Z,5.87
2023-04-02T12:28:38.176Z,5.85
2023-04-02T12:31:09.944Z,5.80
2023-04-02T12:33:42.694Z,5.78
2023-04-02T12:36:14.774Z,5.72
2023-04-02T12:38:55.705Z,5.74
2023-04-02T12:41:33.390Z,5.82
2023-04-02T12:44:12.230Z,5.89
2023-04-02T12:46:46.266Z,5.94
2023-04-02T12:49:42.129Z,5.78
2023-04-02T12:52:19.118Z,5.58
2023-04-02T12:54:57.141Z,5.60
2023-04-02T12:57:31.814Z,5.67
2023-04-02T13:00:21.955Z,5.79
2023-04-02T13:03:18.014Z,5.81
2023-04-02T13:05:57.519Z,5.85
2023-04-02T13:08:33.290Z,5.84
2023-04-02T13:11:06.372Z,5.76
2023-04-02T13:13:41.121Z,5.76
2023-04-02T13:16:12.730Z,5.80
2023-04-02T13:18:47.625Z,5.80
2023-04-02T13:21:19.598Z,5.78
2023-04-02T13:23:51.255Z,5.79
2023-04-02T13:26:25.925Z,5.77
2023-04-02T13:29:02.206Z,5.73
2023-04-02T13:31:34.333Z,5.69
2023-04-02T13:34:06.098Z,5.74
2023-04-02T13:36:37.769Z,5.72
2023-04-02T13:39:09.465Z,5.72
2023-04-02T13:41:45.448Z,5.72
2023-04-02T13:44:19.299Z,5.67
2023-04-02T13:46:51.981Z,5.69
2023-04-02T13:49:24.630Z,5.70
2023-04-02T13:52:00.512Z,5.70
2023-04-02T13:54:53.135Z,5.63
2023-04-02T13:57:24.931Z,5.56
2023-04-02T13:59:56.571Z,5.56
2023-04-02T14:02:29.229Z,5.56
2023-04-02T14:05:19.772Z,5.60
2023-04-02T14:08:04.993Z,5.58
2023-04-02T14:10:52.246Z,5.55
2023-04-02T14:13:30.272Z,5.63
2023-04-02T14:16:46.608Z,5.71
2023-04-02T14:19:26.108Z,5.55
2023-04-02T14:22:06.542Z,5.35
2023-04-02T14:25:15.572Z,5.21
2023-04-02T14:28:07.603Z,5.19
2023-04-02T14:30:57.313Z,5.25
2023-04-02T14:33:48.032Z,5.30
2023-04-02T14:36:56.744Z,5.30
2023-04-02T14:39:46.661Z,5.31
2023-04-02T14:42:51.100Z,5.25
2023-04-02T14:45:34.763Z,5.24
2023-04-02T14:55:07.286Z,5.19
2023-04-02T14:57:44.869Z,5.18
2023-04-02T15:00:28.982Z,5.16
2023-04-02T15:03:04.337Z,5.30
2023-04-02T15:06:06.566Z,5.32
2023-04-02T15:08:58.557Z,5.27
2023-04-02T15:11:42.043Z,5.29
2023-04-02T15:14:21.823Z,5.25
2023-04-02T15:16:54.176Z,5.11
2023-04-02T15:19:25.846Z,5.07
2023-04-02T15:22:31.978Z,5.04
2023-04-02T15:25:06.836Z,5.01
2023-04-02T15:27:52.846Z,4.98
2023-04-02T15:30:39.737Z,4.97
2023-04-02T15:33:32.570Z,4.86
2023-04-02T15:36:28.831Z,4.77
2023-04-02T15:39:11.256Z,4.80
2023-04-02T15:42:09.986Z,4.69
2023-04-02T15:45:02.081Z,4.62
2023-04-02T15:47:44.833Z,4.70
2023-04-02T15:50:42.793Z,4.71
2023-04-02T15:53:39.514Z,4.74
2023-04-02T15:56:26.662Z,4.64
2023-04-02T15:59:08.483Z,4.43
2023-04-02T16:02:07.187Z,4.25
2023-04-02T16:04:52.566Z,4.06
2023-04-02T16:07:50.485Z,3.92
2023-04-02T16:10:34.234Z,3.79
2023-04-02T16:13:29.225Z,3.70
2023-04-02T16:16:04.389Z,3.62
2023-04-02T16:18:59.179Z,3.57
2023-04-02T16:21:35.921Z,3.51
2023-04-02T16:24:13.661Z,3.46
2023-04-02T16:26:53.081Z,3.35
2023-04-02T16:29:58.947Z,3.26
2023-04-02T16:32:35.297Z,3.16
2023-04-02T16:38:13.248Z,3.09
2023-04-02T16:41:08.879Z,3.09
2023-04-02T16:50:51.395Z,2.98
2023-04-02T16:53:36.138Z,2.90
2023-04-02T16:56:38.762Z,2.80
2023-04-02T16:59:36.718Z,2.71
2023-04-02T17:02:45.654Z,2.65
2023-04-02T17:05:53.427Z,2.58
2023-04-02T17:08:26.772Z,2.51
2023-04-02T17:11:06.506Z,2.49
2023-04-02T17:13:53.609Z,2.46
2023-04-02T17:16:36.262Z,2.43
2023-04-02T17:19:13.946Z,2.40
2023-04-02T17:21:48.711Z,2.35
2023-04-02T17:24:28.123Z,2.32
2023-04-02T17:27:37.947Z,2.30
2023-04-02T17:30:32.098Z,2.27
2023-04-02T17:33:07.893Z,2.26
2023-04-02T17:35:58.461Z,2.22
2023-04-02T17:38:35.906Z,2.16
2023-04-02T17:41:17.438Z,2.13
2023-04-02T17:44:00.228Z,2.11
2023-04-02T17:46:53.617Z,2.08
2023-04-02T17:49:40.598Z,2.06
2023-04-02T17:52:21.201Z,2.02
2023-04-02T17:55:17.594Z,2.03
2023-04-02T17:58:15.648Z,2.07
2023-04-02T18:00:55.119Z,2.07
2023-04-02T18:03:35.138Z,2.07
2023-04-02T18:06:32.122Z,2.06
2023-04-02T18:09:26.506Z,2.00
2023-04-02T18:12:16.851Z,1.97
2023-04-02T18:15:03.526Z,1.97
2023-04-02T18:17:53.315Z,1.97
2023-04-02T18:20:43.666Z,1.96
2023-04-02T18:23:33.769Z,1.92
2023-04-02T18:26:39.395Z,1.90
2023-04-02T18:29:49.630Z,1.91
2023-04-02T18:32:36.409Z,1.90
2023-04-02T18:35:26.986Z,1.88
2023-04-02T18:38:11.611Z,1.87
2023-04-02T18:41:01.708Z,1.86
2023-04-02T18:44:11.224Z,1.80
2023-04-02T18:46:53.003Z,1.76
2023-04-02T18:49:35.132Z,1.76
2023-04-02T18:52:13.142Z,1.74
2023-04-02T18:55:06.603Z,1.73
2023-04-02T18:57:42.290Z,1.71
2023-04-02T19:00:34.850Z,1.69
2023-04-02T19:03:21.571Z,1.69
2023-04-02T19:06:04.483Z,1.68
2023-04-02T19:08:50.682Z,1.68
2023-04-02T19:11:29.761Z,1.68
2023-04-02T19:14:10.678Z,1.64
2023-04-02T19:17:01.701Z,1.60
2023-04-02T19:20:01.045Z,1.59
2023-04-02T19:22:38.246Z,1.57
2023-04-02T19:25:31.381Z,1.57
2023-04-02T19:28:24.812Z,1.56
2023-04-02T19:31:09.487Z,1.56
2023-04-02T19:34:15.624Z,1.56
2023-04-02T19:36:54.908Z,1.54
2023-04-02T19:39:38.664Z,1.52
2023-04-02T19:42:15.768Z,1.50
2023-04-02T19:44:50.630Z,1.47
2023-04-02T19:47:24.413Z,1.47
2023-04-02T19:49:56.630Z,1.48
2023-04-02T19:52:28.383Z,1.44
2023-04-02T19:55:00.004Z,1.40
2023-04-02T19:57:31.712Z,1.39
2023-04-02T20:00:04.538Z,1.40
2023-04-02T20:02:37.556Z,1.41
2023-04-02T20:05:09.864Z,1.41
2023-04-02T20:07:41.537Z,1.38
2023-04-02T20:10:13.284Z,1.39
2023-04-02T20:12:44.957Z,1.39
2023-04-02T20:15:16.521Z,1.40
2023-04-02T20:17:48.091Z,1.39
2023-04-02T20:20:19.701Z,1.39
2023-04-02T20:22:51.249Z,1.40
2023-04-02T20:25:23.470Z,1.39
2023-04-02T20:27:55.097Z,1.39
2023-04-02T20:30:26.712Z,1.38
2023-04-02T20:32:59.363Z,1.37
2023-04-02T20:35:34.651Z,1.36
2023-04-02T20:38:08.312Z,1.35
2023-04-02T20:40:41.763Z,1.33
2023-04-02T20:43:13.999Z,1.32
2023-04-02T20:46:06.634Z,1.28
2023-04-02T20:48:39.137Z,1.27
2023-04-02T20:51:14.442Z,1.24
2023-04-02T20:53:46.679Z,1.22
2023-04-02T20:56:20.329Z,1.17
2023-04-02T20:58:52.423Z,1.17
2023-04-02T21:01:26.614Z,1.18
2023-04-02T21:04:01.847Z,1.18
2023-04-02T21:06:37.514Z,1.16
2023-04-02T21:09:15.132Z,1.15
2023-04-02T21:11:46.778Z,1.13
2023-04-02T21:14:19.000Z,1.11
2023-04-02T21:16:50.751Z,1.08
2023-04-02T21:19:22.785Z,1.07
2023-04-02T21:21:55.208Z,1.05
2023-04-02T21:24:27.023Z,1.03
2023-04-02T21:26:58.790Z,1.03
2023-04-02T21:29:30.441Z,1.02
2023-04-02T21:32:08.256Z,1.02
2023-04-02T21:34:46.013Z,1.01
2023-04-02T21:37:17.637Z,0.99
2023-04-02T21:39:49.319Z,0.98
2023-04-02T21:42:21.220Z,0.96
2023-04-02T21:44:53.365Z,0.96
2023-04-02T21:47:25.108Z,0.97
2023-04-02T21:49:56.684Z,0.98
2023-04-02T21:52:28.286Z,0.96
2023-04-02T21:54:59.852Z,0.95
2023-04-02T21:57:31.439Z,0.94
2023-04-02T22:00:08.367Z,0.94
2023-04-02T22:02:39.961Z,0.94
2023-04-02T22:05:11.612Z,0.96
2023-04-02T22:07:43.221Z,0.97
2023-04-02T22:10:14.897Z,0.97
2023-04-02T22:12:46.522Z,0.98
2023-04-02T22:15:18.114Z,0.99
2023-04-02T22:17:51.835Z,1.00
2023-04-02T22:20:24.020Z,1.01
2023-04-02T22:22:56.578Z,0.99
2023-04-02T22:25:28.675Z,0.99
2023-04-02T22:28:00.413Z,1.00
2023-04-02T22:30:34.121Z,1.00
2023-04-02T22:33:06.246Z,1.01
2023-04-02T22:35:39.172Z,1.03
2023-04-02T22:38:11.260Z,1.05
2023-04-02T22:40:42.884Z,1.07
2023-04-02T22:43:14.525Z,1.07
2023-04-02T22:45:47.649Z,1.07
2023-04-02T22:48:19.268Z,1.10
2023-04-02T22:50:52.165Z,1.12
2023-04-02T22:53:23.819Z,1.14
2023-04-02T22:55:55.367Z,1.14
2023-04-02T22:58:27.165Z,1.17
2023-04-02T23:01:06.011Z,1.18
2023-04-02T23:03:38.133Z,1.20
2023-04-02T23:06:13.513Z,1.23
2023-04-02T23:08:46.208Z,1.22
2023-04-02T23:11:24.125Z,1.22
2023-04-02T23:13:57.295Z,1.22
2023-04-02T23:16:30.055Z,1.23
2023-04-02T23:19:01.896Z,1.24
2023-04-02T23:21:33.549Z,1.26
2023-04-02T23:24:05.394Z,1.24
2023-04-02T23:26:36.986Z,1.25
2023-04-02T23:29:11.546Z,1.26
2023-04-02T23:31:43.193Z,1.25
2023-04-02T23:34:14.996Z,1.25
2023-04-02T23:36:46.710Z,1.24
2023-04-02T23:39:20.291Z,1.23
2023-04-02T23:41:51.737Z,1.24
2023-04-02T23:44:23.461Z,1.24
2023-04-02T23:46:55.115Z,1.23
2023-04-02T23:49:27.193Z,1.23
2023-04-02T23:51:58.879Z,1.23
2023-04-02T23:54:30.825Z,1.24
2023-04-02T23:57:04.608Z,1.24
2023-04-02T23:59:36.336Z,1.22
